sensor_id;sensor_type;location;lat;lon;timestamp;temperature;humidity
16267;DHT22;8241;48.786;9.250;2023-01-23T00:01:25;1.70;99.90
16267;DHT22;8241;48.786;9.250;2023-01-23T00:03:53;1.70;99.90
16267;DHT22;8241;48.786;9.250;2023-01-23T00:06:21;1.70;99.90
16267;DHT22;8241;48.786;9.250;2023-01-23T00:08:49;1.60;99.90
16267;DHT22;8241;48.786;9.250;2023-01-23T00:11:17;1.60;99.90
16267;DHT22;8241;48.786;9.250;2023-01-23T00:13:46;1.60;99.90
16267;DHT22;8241;48.786;9.250;2023-01-23T00:16:15;1.70;99.90
16267;DHT22;8241;48.786;9.250;2023-01-23T00:18:42;1.70;99.90
16267;DHT22;8241;48.786;9.250;2023-01-23T00:21:13;1.70;99.90
16267;DHT22;8241;48.786;9.250;2023-01-23T00:23:41;1.70;99.90
16267;DHT22;8241;48.786;9.250;2023-01-23T00:26:11;1.70;99.90
16267;DHT22;8241;48.786;9.250;2023-01-23T00:28:41;1.60;99.90
16267;DHT22;8241;48.786;9.250;2023-01-23T00:31:12;1.60;99.90
16267;DHT22;8241;48.786;9.250;2023-01-23T00:33:41;1.60;99.90
16267;DHT22;8241;48.786;9.250;2023-01-23T00:36:08;1.60;99.90
16267;DHT22;8241;48.786;9.250;2023-01-23T00:38:36;1.50;99.90
16267;DHT22;8241;48.786;9.250;2023-01-23T00:41:03;1.50;99.90
16267;DHT22;8241;48.786;9.250;2023-01-23T00:43:31;1.50;99.90
16267;DHT22;8241;48.786;9.250;2023-01-23T00:45:58;1.50;99.90
16267;DHT22;8241;48.786;9.250;2023-01-23T00:48:27;1.50;99.90
16267;DHT22;8241;48.786;9.250;2023-01-23T00:50:55;1.50;99.90
16267;DHT22;8241;48.786;9.250;2023-01-23T00:53:23;1.50;99.90
16267;DHT22;8241;48.786;9.250;2023-01-23T00:55:51;1.60;99.90
16267;DHT22;8241;48.786;9.250;2023-01-23T00:58:18;1.50;99.90
16267;DHT22;8241;48.786;9.250;2023-01-23T01:00:51;1.50;99.90
16267;DHT22;8241;48.786;9.250;2023-01-23T01:03:18;1.50;99.90
16267;DHT22;8241;48.786;9.250;2023-01-23T01:05:46;1.50;99.90
16267;DHT22;8241;48.786;9.250;2023-01-23T01:08:13;1.60;99.90
16267;DHT22;8241;48.786;9.250;2023-01-23T01:10:40;1.50;99.90
16267;DHT22;8241;48.786;9.250;2023-01-23T01:13:08;1.50;99.90
16267;DHT22;8241;48.786;9.250;2023-01-23T01:15:36;1.50;99.90
16267;DHT22;8241;48.786;9.250;2023-01-23T01:18:04;1.70;99.90
16267;DHT22;8241;48.786;9.250;2023-01-23T01:20:31;1.70;99.90
16267;DHT22;8241;48.786;9.250;2023-01-23T01:23:00;1.60;99.90
16267;DHT22;8241;48.786;9.250;2023-01-23T01:25:27;1.50;99.90
16267;DHT22;8241;48.786;9.250;2023-01-23T01:27:56;1.40;99.90
16267;DHT22;8241;48.786;9.250;2023-01-23T01:30:23;1.40;99.90
16267;DHT22;8241;48.786;9.250;2023-01-23T01:32:52;1.40;99.90
16267;DHT22;8241;48.786;9.250;2023-01-23T01:35:20;1.40;99.90
16267;DHT22;8241;48.786;9.250;2023-01-23T01:37:47;1.40;99.90
16267;DHT22;8241;48.786;9.250;2023-01-23T01:40:19;1.40;99.90
16267;DHT22;8241;48.786;9.250;2023-01-23T01:42:49;1.40;99.90
16267;DHT22;8241;48.786;9.250;2023-01-23T01:48:25;1.50;99.90
16267;DHT22;8241;48.786;9.250;2023-01-23T01:50:52;1.50;99.90
16267;DHT22;8241;48.786;9.250;2023-01-23T01:53:20;1.70;99.90
16267;DHT22;8241;48.786;9.250;2023-01-23T01:55:50;1.70;99.90
16267;DHT22;8241;48.786;9.250;2023-01-23T01:58:17;1.80;99.90
16267;DHT22;8241;48.786;9.250;2023-01-23T02:00:44;1.80;99.90
16267;DHT22;8241;48.786;9.250;2023-01-23T02:03:11;1.60;99.90
16267;DHT22;8241;48.786;9.250;2023-01-23T02:05:42;1.60;99.90
16267;DHT22;8241;48.786;9.250;2023-01-23T02:08:12;1.60;99.90
16267;DHT22;8241;48.786;9.250;2023-01-23T02:10:43;1.60;99.90
16267;DHT22;8241;48.786;9.250;2023-01-23T02:13:24;1.50;99.90
16267;DHT22;8241;48.786;9.250;2023-01-23T02:15:55;1.50;99.90
16267;DHT22;8241;48.786;9.250;2023-01-23T02:18:23;1.60;99.90
16267;DHT22;8241;48.786;9.250;2023-01-23T02:20:52;1.60;99.90
16267;DHT22;8241;48.786;9.250;2023-01-23T02:23:29;1.50;99.90
16267;DHT22;8241;48.786;9.250;2023-01-23T02:26:03;1.50;99.90
16267;DHT22;8241;48.786;9.250;2023-01-23T02:28:40;1.50;99.90
16267;DHT22;8241;48.786;9.250;2023-01-23T02:31:09;1.50;99.90
16267;DHT22;8241;48.786;9.250;2023-01-23T02:33:46;1.60;99.90
16267;DHT22;8241;48.786;9.250;2023-01-23T02:36:14;1.60;99.90
16267;DHT22;8241;48.786;9.250;2023-01-23T02:38:50;1.60;99.90
16267;DHT22;8241;48.786;9.250;2023-01-23T02:41:26;1.50;99.90
16267;DHT22;8241;48.786;9.250;2023-01-23T02:43:56;1.50;99.90
16267;DHT22;8241;48.786;9.250;2023-01-23T02:46:24;1.60;99.90
16267;DHT22;8241;48.786;9.250;2023-01-23T02:48:52;1.60;99.90
16267;DHT22;8241;48.786;9.250;2023-01-23T02:51:25;1.60;99.90
16267;DHT22;8241;48.786;9.250;2023-01-23T02:53:52;1.60;99.90
16267;DHT22;8241;48.786;9.250;2023-01-23T02:56:20;1.60;99.90
16267;DHT22;8241;48.786;9.250;2023-01-23T02:58:47;1.60;99.90
16267;DHT22;8241;48.786;9.250;2023-01-23T03:01:32;1.60;99.90
16267;DHT22;8241;48.786;9.250;2023-01-23T03:04:02;1.60;99.90
16267;DHT22;8241;48.786;9.250;2023-01-23T03:06:33;1.60;99.90
16267;DHT22;8241;48.786;9.250;2023-01-23T03:09:05;1.50;99.90
16267;DHT22;8241;48.786;9.250;2023-01-23T03:11:35;1.40;99.90
16267;DHT22;8241;48.786;9.250;2023-01-23T03:14:04;1.40;99.90
16267;DHT22;8241;48.786;9.250;2023-01-23T03:16:32;1.60;99.90
16267;DHT22;8241;48.786;9.250;2023-01-23T03:18:59;1.60;99.90
16267;DHT22;8241;48.786;9.250;2023-01-23T03:21:30;1.60;99.90
16267;DHT22;8241;48.786;9.250;2023-01-23T03:23:57;1.60;99.90
16267;DHT22;8241;48.786;9.250;2023-01-23T03:26:25;1.60;99.90
16267;DHT22;8241;48.786;9.250;2023-01-23T03:28:53;1.60;99.90
16267;DHT22;8241;48.786;9.250;2023-01-23T03:31:38;1.70;99.90
16267;DHT22;8241;48.786;9.250;2023-01-23T03:34:05;1.70;99.90
16267;DHT22;8241;48.786;9.250;2023-01-23T03:36:33;1.70;99.90
16267;DHT22;8241;48.786;9.250;2023-01-23T03:39:04;1.70;99.90
16267;DHT22;8241;48.786;9.250;2023-01-23T03:41:49;1.60;99.90
16267;DHT22;8241;48.786;9.250;2023-01-23T03:44:19;1.50;99.90
16267;DHT22;8241;48.786;9.250;2023-01-23T03:46:48;1.60;99.90
16267;DHT22;8241;48.786;9.250;2023-01-23T03:49:15;1.60;99.90
16267;DHT22;8241;48.786;9.250;2023-01-23T03:51:43;1.60;99.90
16267;DHT22;8241;48.786;9.250;2023-01-23T03:54:10;1.60;99.90
16267;DHT22;8241;48.786;9.250;2023-01-23T03:56:39;1.60;99.90
16267;DHT22;8241;48.786;9.250;2023-01-23T03:59:10;1.60;99.90
16267;DHT22;8241;48.786;9.250;2023-01-23T04:01:38;1.70;99.90
16267;DHT22;8241;48.786;9.250;2023-01-23T04:04:07;1.70;99.90
16267;DHT22;8241;48.786;9.250;2023-01-23T04:06:34;1.60;99.90
16267;DHT22;8241;48.786;9.250;2023-01-23T04:09:01;1.60;99.90
16267;DHT22;8241;48.786;9.250;2023-01-23T04:11:28;1.60;99.90
16267;DHT22;8241;48.786;9.250;2023-01-23T04:13:56;1.60;99.90
16267;DHT22;8241;48.786;9.250;2023-01-23T04:16:23;1.70;99.90
16267;DHT22;8241;48.786;9.250;2023-01-23T04:18:52;1.70;99.90
16267;DHT22;8241;48.786;9.250;2023-01-23T04:21:20;1.70;99.90
16267;DHT22;8241;48.786;9.250;2023-01-23T04:23:47;1.60;99.90
16267;DHT22;8241;48.786;9.250;2023-01-23T04:26:14;1.60;99.90
16267;DHT22;8241;48.786;9.250;2023-01-23T04:28:42;1.60;99.90
16267;DHT22;8241;48.786;9.250;2023-01-23T04:31:10;1.60;99.90
16267;DHT22;8241;48.786;9.250;2023-01-23T04:33:37;1.70;99.90
16267;DHT22;8241;48.786;9.250;2023-01-23T04:36:06;1.70;99.90
16267;DHT22;8241;48.786;9.250;2023-01-23T04:38:34;1.70;99.90
16267;DHT22;8241;48.786;9.250;2023-01-23T04:41:21;1.60;99.90
16267;DHT22;8241;48.786;9.250;2023-01-23T04:43:52;1.70;99.90
16267;DHT22;8241;48.786;9.250;2023-01-23T04:46:20;1.70;99.90
16267;DHT22;8241;48.786;9.250;2023-01-23T04:48:47;1.70;99.90
16267;DHT22;8241;48.786;9.250;2023-01-23T04:51:17;1.70;99.90
16267;DHT22;8241;48.786;9.250;2023-01-23T04:53:44;1.70;99.90
16267;DHT22;8241;48.786;9.250;2023-01-23T04:56:12;1.60;99.90
16267;DHT22;8241;48.786;9.250;2023-01-23T04:58:39;1.70;99.90
16267;DHT22;8241;48.786;9.250;2023-01-23T05:01:09;1.70;99.90
16267;DHT22;8241;48.786;9.250;2023-01-23T05:03:36;1.60;99.90
16267;DHT22;8241;48.786;9.250;2023-01-23T05:06:04;1.60;99.90
16267;DHT22;8241;48.786;9.250;2023-01-23T05:08:33;1.60;99.90
16267;DHT22;8241;48.786;9.250;2023-01-23T05:11:13;1.60;99.90
16267;DHT22;8241;48.786;9.250;2023-01-23T05:13:40;1.60;99.90
16267;DHT22;8241;48.786;9.250;2023-01-23T05:16:14;1.60;99.90
16267;DHT22;8241;48.786;9.250;2023-01-23T05:19:07;1.60;99.90
16267;DHT22;8241;48.786;9.250;2023-01-23T05:21:37;1.60;99.90
16267;DHT22;8241;48.786;9.250;2023-01-23T05:24:07;1.60;99.90
16267;DHT22;8241;48.786;9.250;2023-01-23T05:26:35;1.70;99.90
16267;DHT22;8241;48.786;9.250;2023-01-23T05:29:02;1.70;99.90
16267;DHT22;8241;48.786;9.250;2023-01-23T05:31:30;1.60;99.90
16267;DHT22;8241;48.786;9.250;2023-01-23T05:34:16;1.60;99.90
16267;DHT22;8241;48.786;9.250;2023-01-23T05:36:43;1.60;99.90
16267;DHT22;8241;48.786;9.250;2023-01-23T05:39:11;1.60;99.90
16267;DHT22;8241;48.786;9.250;2023-01-23T05:41:38;1.60;99.90
16267;DHT22;8241;48.786;9.250;2023-01-23T05:44:29;1.70;99.90
16267;DHT22;8241;48.786;9.250;2023-01-23T05:47:06;1.70;99.90
16267;DHT22;8241;48.786;9.250;2023-01-23T05:49:38;1.70;99.90
16267;DHT22;8241;48.786;9.250;2023-01-23T05:52:06;1.70;99.90
16267;DHT22;8241;48.786;9.250;2023-01-23T05:54:35;1.70;99.90
16267;DHT22;8241;48.786;9.250;2023-01-23T05:57:02;1.70;99.90
16267;DHT22;8241;48.786;9.250;2023-01-23T05:59:49;1.70;99.90
16267;DHT22;8241;48.786;9.250;2023-01-23T06:02:40;1.70;99.90
16267;DHT22;8241;48.786;9.250;2023-01-23T06:05:36;1.70;99.90
16267;DHT22;8241;48.786;9.250;2023-01-23T06:08:10;1.70;99.90
16267;DHT22;8241;48.786;9.250;2023-01-23T06:10:38;1.70;99.90
16267;DHT22;8241;48.786;9.250;2023-01-23T06:13:05;1.60;99.90
16267;DHT22;8241;48.786;9.250;2023-01-23T06:15:34;1.60;99.90
16267;DHT22;8241;48.786;9.250;2023-01-23T06:18:06;1.60;99.90
16267;DHT22;8241;48.786;9.250;2023-01-23T06:20:33;1.70;99.90
16267;DHT22;8241;48.786;9.250;2023-01-23T06:23:01;1.70;99.90
16267;DHT22;8241;48.786;9.250;2023-01-23T06:25:28;1.70;99.90
16267;DHT22;8241;48.786;9.250;2023-01-23T06:27:59;1.70;99.90
16267;DHT22;8241;48.786;9.250;2023-01-23T06:30:29;1.70;99.90
16267;DHT22;8241;48.786;9.250;2023-01-23T06:32:56;1.70;99.90
16267;DHT22;8241;48.786;9.250;2023-01-23T06:35:31;1.70;99.90
16267;DHT22;8241;48.786;9.250;2023-01-23T06:37:58;1.70;99.90
16267;DHT22;8241;48.786;9.250;2023-01-23T06:40:25;1.70;99.90
16267;DHT22;8241;48.786;9.250;2023-01-23T06:43:08;1.70;99.90
16267;DHT22;8241;48.786;9.250;2023-01-23T06:45:35;1.70;99.90
16267;DHT22;8241;48.786;9.250;2023-01-23T06:48:02;1.70;99.90
16267;DHT22;8241;48.786;9.250;2023-01-23T06:50:29;1.70;99.90
16267;DHT22;8241;48.786;9.250;2023-01-23T06:52:57;1.80;99.90
16267;DHT22;8241;48.786;9.250;2023-01-23T06:55:23;1.70;99.90
16267;DHT22;8241;48.786;9.250;2023-01-23T06:57:51;1.70;99.90
16267;DHT22;8241;48.786;9.250;2023-01-23T07:00:20;1.70;99.90
16267;DHT22;8241;48.786;9.250;2023-01-23T07:02:48;1.70;99.90
16267;DHT22;8241;48.786;9.250;2023-01-23T07:05:16;1.70;99.90
16267;DHT22;8241;48.786;9.250;2023-01-23T07:07:45;1.70;99.90
16267;DHT22;8241;48.786;9.250;2023-01-23T07:10:12;1.60;99.90
16267;DHT22;8241;48.786;9.250;2023-01-23T07:12:40;1.70;99.90
16267;DHT22;8241;48.786;9.250;2023-01-23T07:15:11;1.70;99.90
16267;DHT22;8241;48.786;9.250;2023-01-23T07:17:41;1.70;99.90
16267;DHT22;8241;48.786;9.250;2023-01-23T07:20:09;1.70;99.90
16267;DHT22;8241;48.786;9.250;2023-01-23T07:22:42;1.70;99.90
16267;DHT22;8241;48.786;9.250;2023-01-23T07:25:09;1.70;99.90
16267;DHT22;8241;48.786;9.250;2023-01-23T07:27:37;1.70;99.90
16267;DHT22;8241;48.786;9.250;2023-01-23T07:30:04;1.70;99.90
16267;DHT22;8241;48.786;9.250;2023-01-23T07:32:31;1.70;99.90
16267;DHT22;8241;48.786;9.250;2023-01-23T07:35:01;1.70;99.90
16267;DHT22;8241;48.786;9.250;2023-01-23T07:37:28;1.70;99.90
16267;DHT22;8241;48.786;9.250;2023-01-23T07:39:54;1.70;99.90
16267;DHT22;8241;48.786;9.250;2023-01-23T07:42:21;1.70;99.90
16267;DHT22;8241;48.786;9.250;2023-01-23T07:44:51;1.70;99.90
16267;DHT22;8241;48.786;9.250;2023-01-23T07:47:17;1.80;99.90
16267;DHT22;8241;48.786;9.250;2023-01-23T07:49:44;1.80;99.90
16267;DHT22;8241;48.786;9.250;2023-01-23T07:52:13;1.80;99.90
16267;DHT22;8241;48.786;9.250;2023-01-23T07:54:43;1.90;99.90
16267;DHT22;8241;48.786;9.250;2023-01-23T07:57:23;1.80;99.90
16267;DHT22;8241;48.786;9.250;2023-01-23T07:59:54;1.80;99.90
16267;DHT22;8241;48.786;9.250;2023-01-23T08:02:26;1.80;99.90
16267;DHT22;8241;48.786;9.250;2023-01-23T08:04:56;1.80;99.90
16267;DHT22;8241;48.786;9.250;2023-01-23T08:07:29;1.80;99.90
16267;DHT22;8241;48.786;9.250;2023-01-23T08:09:59;1.90;99.90
16267;DHT22;8241;48.786;9.250;2023-01-23T08:12:27;1.80;99.90
16267;DHT22;8241;48.786;9.250;2023-01-23T08:15:10;1.80;99.90
16267;DHT22;8241;48.786;9.250;2023-01-23T08:17:45;1.90;99.90
16267;DHT22;8241;48.786;9.250;2023-01-23T08:20:13;1.90;99.90
16267;DHT22;8241;48.786;9.250;2023-01-23T08:22:42;1.90;99.90
16267;DHT22;8241;48.786;9.250;2023-01-23T08:25:10;1.90;99.90
16267;DHT22;8241;48.786;9.250;2023-01-23T08:27:42;1.90;99.90
16267;DHT22;8241;48.786;9.250;2023-01-23T08:30:10;2.00;99.90
16267;DHT22;8241;48.786;9.250;2023-01-23T08:32:50;2.00;99.90
16267;DHT22;8241;48.786;9.250;2023-01-23T08:35:22;2.00;99.90
16267;DHT22;8241;48.786;9.250;2023-01-23T08:37:50;2.00;99.90
16267;DHT22;8241;48.786;9.250;2023-01-23T08:40:18;2.10;99.90
16267;DHT22;8241;48.786;9.250;2023-01-23T08:42:50;2.10;99.90
16267;DHT22;8241;48.786;9.250;2023-01-23T08:45:17;2.00;99.90
16267;DHT22;8241;48.786;9.250;2023-01-23T08:47:45;2.10;99.90
16267;DHT22;8241;48.786;9.250;2023-01-23T08:50:13;2.10;99.90
16267;DHT22;8241;48.786;9.250;2023-01-23T08:52:48;2.00;99.90
16267;DHT22;8241;48.786;9.250;2023-01-23T08:55:17;2.10;99.90
16267;DHT22;8241;48.786;9.250;2023-01-23T08:57:51;2.10;99.90
16267;DHT22;8241;48.786;9.250;2023-01-23T09:00:30;2.10;99.90
16267;DHT22;8241;48.786;9.250;2023-01-23T09:02:58;2.20;99.90
16267;DHT22;8241;48.786;9.250;2023-01-23T09:05:26;2.40;99.90
16267;DHT22;8241;48.786;9.250;2023-01-23T09:08:05;2.40;99.90
16267;DHT22;8241;48.786;9.250;2023-01-23T09:10:34;2.30;99.90
16267;DHT22;8241;48.786;9.250;2023-01-23T09:13:10;2.50;99.90
16267;DHT22;8241;48.786;9.250;2023-01-23T09:15:45;2.40;99.90
16267;DHT22;8241;48.786;9.250;2023-01-23T09:18:20;2.40;99.90
16267;DHT22;8241;48.786;9.250;2023-01-23T09:20:49;2.50;99.90
16267;DHT22;8241;48.786;9.250;2023-01-23T09:23:33;2.50;99.90
16267;DHT22;8241;48.786;9.250;2023-01-23T09:26:07;2.50;99.90
16267;DHT22;8241;48.786;9.250;2023-01-23T09:28:45;2.50;99.90
16267;DHT22;8241;48.786;9.250;2023-01-23T09:31:13;2.50;99.90
16267;DHT22;8241;48.786;9.250;2023-01-23T09:33:43;2.50;99.90
16267;DHT22;8241;48.786;9.250;2023-01-23T09:36:10;2.50;99.90
16267;DHT22;8241;48.786;9.250;2023-01-23T09:38:38;2.40;99.90
16267;DHT22;8241;48.786;9.250;2023-01-23T09:41:16;2.40;99.90
16267;DHT22;8241;48.786;9.250;2023-01-23T09:43:52;2.50;99.90
16267;DHT22;8241;48.786;9.250;2023-01-23T09:46:31;2.40;99.90
16267;DHT22;8241;48.786;9.250;2023-01-23T09:49:16;2.30;99.90
16267;DHT22;8241;48.786;9.250;2023-01-23T09:51:50;2.40;99.90
16267;DHT22;8241;48.786;9.250;2023-01-23T09:54:34;2.40;99.90
16267;DHT22;8241;48.786;9.250;2023-01-23T09:57:12;2.40;99.90
16267;DHT22;8241;48.786;9.250;2023-01-23T09:59:45;2.40;99.90
16267;DHT22;8241;48.786;9.250;2023-01-23T10:02:16;2.30;99.90
16267;DHT22;8241;48.786;9.250;2023-01-23T10:04:45;2.30;99.90
16267;DHT22;8241;48.786;9.250;2023-01-23T10:07:26;2.40;99.90
16267;DHT22;8241;48.786;9.250;2023-01-23T10:10:20;2.50;99.90
16267;DHT22;8241;48.786;9.250;2023-01-23T10:13:00;2.70;99.90
16267;DHT22;8241;48.786;9.250;2023-01-23T10:15:35;2.70;99.90
16267;DHT22;8241;48.786;9.250;2023-01-23T10:18:17;2.70;99.90
16267;DHT22;8241;48.786;9.250;2023-01-23T10:21:06;2.60;99.90
16267;DHT22;8241;48.786;9.250;2023-01-23T10:23:45;2.50;99.90
16267;DHT22;8241;48.786;9.250;2023-01-23T10:26:17;2.70;99.90
16267;DHT22;8241;48.786;9.250;2023-01-23T10:28:57;2.70;99.90
16267;DHT22;8241;48.786;9.250;2023-01-23T10:31:37;2.90;99.90
16267;DHT22;8241;48.786;9.250;2023-01-23T10:34:15;2.90;99.90
16267;DHT22;8241;48.786;9.250;2023-01-23T10:37:04;3.00;99.90
16267;DHT22;8241;48.786;9.250;2023-01-23T10:39:43;2.90;99.90
16267;DHT22;8241;48.786;9.250;2023-01-23T10:42:28;2.90;99.90
16267;DHT22;8241;48.786;9.250;2023-01-23T10:44:58;2.90;99.90
16267;DHT22;8241;48.786;9.250;2023-01-23T10:47:31;2.90;99.90
16267;DHT22;8241;48.786;9.250;2023-01-23T10:50:05;2.90;99.90
16267;DHT22;8241;48.786;9.250;2023-01-23T10:52:40;2.90;99.90
16267;DHT22;8241;48.786;9.250;2023-01-23T10:55:28;3.00;99.90
16267;DHT22;8241;48.786;9.250;2023-01-23T10:57:57;2.90;99.90
16267;DHT22;8241;48.786;9.250;2023-01-23T11:00:34;2.90;99.90
16267;DHT22;8241;48.786;9.250;2023-01-23T11:03:28;2.80;99.90
16267;DHT22;8241;48.786;9.250;2023-01-23T11:06:01;2.80;99.90
16267;DHT22;8241;48.786;9.250;2023-01-23T11:08:31;2.80;99.90
16267;DHT22;8241;48.786;9.250;2023-01-23T11:11:27;2.80;99.90
16267;DHT22;8241;48.786;9.250;2023-01-23T11:14:06;2.90;99.90
16267;DHT22;8241;48.786;9.250;2023-01-23T11:16:37;2.90;99.90
16267;DHT22;8241;48.786;9.250;2023-01-23T11:19:18;3.00;99.90
16267;DHT22;8241;48.786;9.250;2023-01-23T11:21:53;3.00;99.90
16267;DHT22;8241;48.786;9.250;2023-01-23T11:24:27;3.00;99.90
16267;DHT22;8241;48.786;9.250;2023-01-23T11:26:58;3.00;99.90
16267;DHT22;8241;48.786;9.250;2023-01-23T11:29:29;3.00;99.90
16267;DHT22;8241;48.786;9.250;2023-01-23T11:32:01;3.00;99.90
16267;DHT22;8241;48.786;9.250;2023-01-23T11:34:39;3.00;99.90
16267;DHT22;8241;48.786;9.250;2023-01-23T11:37:17;3.00;99.90
16267;DHT22;8241;48.786;9.250;2023-01-23T11:39:53;3.00;99.90
16267;DHT22;8241;48.786;9.250;2023-01-23T11:42:27;3.00;99.90
16267;DHT22;8241;48.786;9.250;2023-01-23T11:45:00;3.00;99.90
16267;DHT22;8241;48.786;9.250;2023-01-23T11:47:45;2.90;99.90
16267;DHT22;8241;48.786;9.250;2023-01-23T11:50:35;2.90;99.90
16267;DHT22;8241;48.786;9.250;2023-01-23T11:53:18;3.00;99.90
16267;DHT22;8241;48.786;9.250;2023-01-23T11:55:56;2.90;99.90
16267;DHT22;8241;48.786;9.250;2023-01-23T11:58:49;3.00;99.90
16267;DHT22;8241;48.786;9.250;2023-01-23T12:01:28;3.00;99.90
16267;DHT22;8241;48.786;9.250;2023-01-23T12:07:21;3.00;99.90
16267;DHT22;8241;48.786;9.250;2023-01-23T12:10:03;3.00;99.90
16267;DHT22;8241;48.786;9.250;2023-01-23T12:12:50;3.00;99.90
16267;DHT22;8241;48.786;9.250;2023-01-23T12:15:30;3.00;99.90
16267;DHT22;8241;48.786;9.250;2023-01-23T12:18:03;3.00;99.90
16267;DHT22;8241;48.786;9.250;2023-01-23T12:20:41;3.00;99.90
16267;DHT22;8241;48.786;9.250;2023-01-23T12:23:23;3.00;99.90
16267;DHT22;8241;48.786;9.250;2023-01-23T12:26:00;3.00;99.90
16267;DHT22;8241;48.786;9.250;2023-01-23T12:31:46;3.30;99.90
16267;DHT22;8241;48.786;9.250;2023-01-23T12:34:54;3.40;99.90
16267;DHT22;8241;48.786;9.250;2023-01-23T12:37:41;3.40;99.90
16267;DHT22;8241;48.786;9.250;2023-01-23T12:40:15;3.50;99.90
16267;DHT22;8241;48.786;9.250;2023-01-23T12:42:52;3.60;99.90
16267;DHT22;8241;48.786;9.250;2023-01-23T12:45:42;3.60;99.90
16267;DHT22;8241;48.786;9.250;2023-01-23T12:48:18;3.70;99.90
16267;DHT22;8241;48.786;9.250;2023-01-23T12:50:55;3.60;99.90
16267;DHT22;8241;48.786;9.250;2023-01-23T12:53:37;3.80;99.90
16267;DHT22;8241;48.786;9.250;2023-01-23T12:56:12;4.10;99.90
16267;DHT22;8241;48.786;9.250;2023-01-23T13:02:03;4.30;99.90
16267;DHT22;8241;48.786;9.250;2023-01-23T13:04:52;4.10;99.90
16267;DHT22;8241;48.786;9.250;2023-01-23T13:07:40;4.10;99.90
16267;DHT22;8241;48.786;9.250;2023-01-23T13:10:30;4.30;99.90
16267;DHT22;8241;48.786;9.250;2023-01-23T13:13:20;4.40;99.90
16267;DHT22;8241;48.786;9.250;2023-01-23T13:16:08;4.60;99.90
16267;DHT22;8241;48.786;9.250;2023-01-23T13:18:37;4.60;99.90
16267;DHT22;8241;48.786;9.250;2023-01-23T13:21:23;4.60;99.90
16267;DHT22;8241;48.786;9.250;2023-01-23T13:24:42;4.60;99.90
16267;DHT22;8241;48.786;9.250;2023-01-23T13:27:45;4.80;99.90
16267;DHT22;8241;48.786;9.250;2023-01-23T13:30:42;4.70;99.90
16267;DHT22;8241;48.786;9.250;2023-01-23T13:36:34;4.50;99.90
16267;DHT22;8241;48.786;9.250;2023-01-23T13:39:26;4.40;99.90
16267;DHT22;8241;48.786;9.250;2023-01-23T13:45:25;4.30;99.90
16267;DHT22;8241;48.786;9.250;2023-01-23T13:48:33;4.30;99.90
16267;DHT22;8241;48.786;9.250;2023-01-23T13:51:22;4.30;99.90
16267;DHT22;8241;48.786;9.250;2023-01-23T13:53:58;4.20;99.90
16267;DHT22;8241;48.786;9.250;2023-01-23T13:56:48;4.20;99.90
16267;DHT22;8241;48.786;9.250;2023-01-23T13:59:31;4.10;99.90
16267;DHT22;8241;48.786;9.250;2023-01-23T14:02:16;4.20;99.90
16267;DHT22;8241;48.786;9.250;2023-01-23T14:05:10;4.10;99.90
16267;DHT22;8241;48.786;9.250;2023-01-23T14:07:44;4.10;99.90
16267;DHT22;8241;48.786;9.250;2023-01-23T14:10:19;4.10;99.90
16267;DHT22;8241;48.786;9.250;2023-01-23T14:13:00;4.10;99.90
16267;DHT22;8241;48.786;9.250;2023-01-23T14:15:28;3.90;99.90
16267;DHT22;8241;48.786;9.250;2023-01-23T14:18:34;3.90;99.90
16267;DHT22;8241;48.786;9.250;2023-01-23T14:21:18;3.90;99.90
16267;DHT22;8241;48.786;9.250;2023-01-23T14:23:51;3.80;99.90
16267;DHT22;8241;48.786;9.250;2023-01-23T14:26:29;3.70;99.90
16267;DHT22;8241;48.786;9.250;2023-01-23T14:29:18;3.70;99.90
16267;DHT22;8241;48.786;9.250;2023-01-23T14:31:48;3.70;99.90
16267;DHT22;8241;48.786;9.250;2023-01-23T14:34:18;3.60;99.90
16267;DHT22;8241;48.786;9.250;2023-01-23T14:36:49;3.60;99.90
16267;DHT22;8241;48.786;9.250;2023-01-23T14:39:24;3.50;99.90
16267;DHT22;8241;48.786;9.250;2023-01-23T14:41:55;3.50;99.90
16267;DHT22;8241;48.786;9.250;2023-01-23T14:44:39;3.60;99.90
16267;DHT22;8241;48.786;9.250;2023-01-23T14:47:13;3.60;99.90
16267;DHT22;8241;48.786;9.250;2023-01-23T14:49:42;3.60;99.90
16267;DHT22;8241;48.786;9.250;2023-01-23T14:52:21;3.60;99.90
16267;DHT22;8241;48.786;9.250;2023-01-23T14:54:49;3.60;99.90
16267;DHT22;8241;48.786;9.250;2023-01-23T14:57:18;3.60;99.90
16267;DHT22;8241;48.786;9.250;2023-01-23T14:59:46;3.60;99.90
16267;DHT22;8241;48.786;9.250;2023-01-23T15:02:25;3.60;99.90
16267;DHT22;8241;48.786;9.250;2023-01-23T15:05:21;3.60;99.90
16267;DHT22;8241;48.786;9.250;2023-01-23T15:07:53;3.60;99.90
16267;DHT22;8241;48.786;9.250;2023-01-23T15:10:23;3.60;99.90
16267;DHT22;8241;48.786;9.250;2023-01-23T15:12:58;3.60;99.90
16267;DHT22;8241;48.786;9.250;2023-01-23T15:15:28;3.60;99.90
16267;DHT22;8241;48.786;9.250;2023-01-23T15:17:56;3.50;99.90
16267;DHT22;8241;48.786;9.250;2023-01-23T15:20:34;3.50;99.90
16267;DHT22;8241;48.786;9.250;2023-01-23T15:23:24;3.50;99.90
16267;DHT22;8241;48.786;9.250;2023-01-23T15:26:11;3.50;99.90
16267;DHT22;8241;48.786;9.250;2023-01-23T15:28:48;3.50;99.90
16267;DHT22;8241;48.786;9.250;2023-01-23T15:31:28;3.40;99.90
16267;DHT22;8241;48.786;9.250;2023-01-23T15:34:28;3.40;99.90
16267;DHT22;8241;48.786;9.250;2023-01-23T15:37:04;3.40;99.90
16267;DHT22;8241;48.786;9.250;2023-01-23T15:39:48;3.50;99.90
16267;DHT22;8241;48.786;9.250;2023-01-23T15:42:28;3.50;99.90
16267;DHT22;8241;48.786;9.250;2023-01-23T15:44:56;3.50;99.90
16267;DHT22;8241;48.786;9.250;2023-01-23T15:47:27;3.50;99.90
16267;DHT22;8241;48.786;9.250;2023-01-23T15:49:58;3.40;99.90
16267;DHT22;8241;48.786;9.250;2023-01-23T15:52:29;3.40;99.90
16267;DHT22;8241;48.786;9.250;2023-01-23T15:55:04;3.50;99.90
16267;DHT22;8241;48.786;9.250;2023-01-23T15:57:34;3.50;99.90
16267;DHT22;8241;48.786;9.250;2023-01-23T16:00:13;3.50;99.90
16267;DHT22;8241;48.786;9.250;2023-01-23T16:02:47;3.40;99.90
16267;DHT22;8241;48.786;9.250;2023-01-23T16:05:25;3.40;99.90
16267;DHT22;8241;48.786;9.250;2023-01-23T16:08:04;3.40;99.90
16267;DHT22;8241;48.786;9.250;2023-01-23T16:10:36;3.40;99.90
16267;DHT22;8241;48.786;9.250;2023-01-23T16:13:04;3.30;99.90
16267;DHT22;8241;48.786;9.250;2023-01-23T16:15:52;3.40;99.90
16267;DHT22;8241;48.786;9.250;2023-01-23T16:18:19;3.40;99.90
16267;DHT22;8241;48.786;9.250;2023-01-23T16:20:53;3.40;99.90
16267;DHT22;8241;48.786;9.250;2023-01-23T16:23:26;3.30;99.90
16267;DHT22;8241;48.786;9.250;2023-01-23T16:25:56;3.20;99.90
16267;DHT22;8241;48.786;9.250;2023-01-23T16:28:24;3.20;99.90
16267;DHT22;8241;48.786;9.250;2023-01-23T16:30:51;3.20;99.90
16267;DHT22;8241;48.786;9.250;2023-01-23T16:33:36;3.30;99.90
16267;DHT22;8241;48.786;9.250;2023-01-23T16:36:05;3.30;99.90
16267;DHT22;8241;48.786;9.250;2023-01-23T16:38:49;3.30;99.90
16267;DHT22;8241;48.786;9.250;2023-01-23T16:41:18;3.20;99.90
16267;DHT22;8241;48.786;9.250;2023-01-23T16:43:53;3.30;99.90
16267;DHT22;8241;48.786;9.250;2023-01-23T16:46:20;3.30;99.90
16267;DHT22;8241;48.786;9.250;2023-01-23T16:48:47;3.30;99.90
16267;DHT22;8241;48.786;9.250;2023-01-23T16:51:18;3.30;99.90
16267;DHT22;8241;48.786;9.250;2023-01-23T16:53:50;3.30;99.90
16267;DHT22;8241;48.786;9.250;2023-01-23T16:56:28;3.30;99.90
16267;DHT22;8241;48.786;9.250;2023-01-23T16:58:58;3.30;99.90
16267;DHT22;8241;48.786;9.250;2023-01-23T17:01:25;3.30;99.90
16267;DHT22;8241;48.786;9.250;2023-01-23T17:03:56;3.30;99.90